Terminal Aerodrome Forecast
Issued by NWS

Home | Current Version | Previous Version | Graphics & Text | Print | Product List | Glossary On
Versions: 1 2 3 4 5 6 7 8 9 10 11 12 13 14 15 16 17 18 19 20 21 22 23 24 25 26 27 28
000
FTUS43 KGRB 261734
TAFRHI
TAF
KRHI 261734Z 2618/2718 33006KT P6SM SCT030
     FM262000 31006KT P6SM SCT035
     FM270100 VRB03KT P6SM SKC
     FM270800 00000KT 3SM BR SKC
      TEMPO 2708/2712 1/2SM FG BKN002
     FM271400 18003KT 6SM BR SKC
      TEMPO 2714/2715 4SM BR=

USA.gov is the U.S. government's official web portal to all federal, state and local government web resources and services.